sensor_id;sensor_type;location;lat;lon;timestamp;P1;durP1;ratioP1;P2;durP2;ratioP2
46835;SDS011;32573;51.290;6.926;2024-03-22T00:02:16;9.30;;;4.35;;
46835;SDS011;32573;51.290;6.926;2024-03-22T00:04:44;9.20;;;4.10;;
46835;SDS011;32573;51.290;6.926;2024-03-22T00:07:10;8.88;;;3.97;;
46835;SDS011;32573;51.290;6.926;2024-03-22T00:09:38;9.48;;;4.30;;
46835;SDS011;32573;51.290;6.926;2024-03-22T00:12:05;8.45;;;4.10;;
46835;SDS011;32573;51.290;6.926;2024-03-22T00:14:33;8.30;;;4.45;;
46835;SDS011;32573;51.290;6.926;2024-03-22T00:17:01;8.63;;;3.75;;
46835;SDS011;32573;51.290;6.926;2024-03-22T00:19:29;8.30;;;3.80;;
46835;SDS011;32573;51.290;6.926;2024-03-22T00:21:55;7.80;;;3.60;;
46835;SDS011;32573;51.290;6.926;2024-03-22T00:24:23;9.48;;;4.07;;
46835;SDS011;32573;51.290;6.926;2024-03-22T00:26:49;8.07;;;3.63;;
46835;SDS011;32573;51.290;6.926;2024-03-22T00:29:16;8.80;;;4.05;;
46835;SDS011;32573;51.290;6.926;2024-03-22T00:31:43;8.68;;;4.07;;
46835;SDS011;32573;51.290;6.926;2024-03-22T00:34:12;8.43;;;3.75;;
46835;SDS011;32573;51.290;6.926;2024-03-22T00:36:39;8.73;;;4.07;;
46835;SDS011;32573;51.290;6.926;2024-03-22T00:39:06;9.35;;;4.18;;
46835;SDS011;32573;51.290;6.926;2024-03-22T00:41:35;9.73;;;4.00;;
46835;SDS011;32573;51.290;6.926;2024-03-22T00:44:02;9.00;;;4.50;;
46835;SDS011;32573;51.290;6.926;2024-03-22T00:46:29;9.60;;;4.20;;
46835;SDS011;32573;51.290;6.926;2024-03-22T00:48:57;8.80;;;3.83;;
46835;SDS011;32573;51.290;6.926;2024-03-22T00:51:26;9.32;;;4.07;;
46835;SDS011;32573;51.290;6.926;2024-03-22T00:53:54;9.93;;;4.47;;
46835;SDS011;32573;51.290;6.926;2024-03-22T00:56:20;8.27;;;3.83;;
46835;SDS011;32573;51.290;6.926;2024-03-22T00:58:49;9.05;;;4.00;;
46835;SDS011;32573;51.290;6.926;2024-03-22T01:01:15;9.38;;;4.20;;
46835;SDS011;32573;51.290;6.926;2024-03-22T01:03:43;7.82;;;3.63;;
46835;SDS011;32573;51.290;6.926;2024-03-22T01:06:09;9.10;;;4.00;;
46835;SDS011;32573;51.290;6.926;2024-03-22T01:08:38;8.98;;;4.03;;
46835;SDS011;32573;51.290;6.926;2024-03-22T01:11:05;10.30;;;4.40;;
46835;SDS011;32573;51.290;6.926;2024-03-22T01:13:32;10.05;;;3.65;;
46835;SDS011;32573;51.290;6.926;2024-03-22T01:15:58;9.90;;;4.43;;
46835;SDS011;32573;51.290;6.926;2024-03-22T01:18:26;9.40;;;3.80;;
46835;SDS011;32573;51.290;6.926;2024-03-22T01:20:52;8.85;;;4.30;;
46835;SDS011;32573;51.290;6.926;2024-03-22T01:23:20;9.23;;;4.13;;
46835;SDS011;32573;51.290;6.926;2024-03-22T01:25:48;8.98;;;3.80;;
46835;SDS011;32573;51.290;6.926;2024-03-22T01:28:15;9.48;;;3.65;;
46835;SDS011;32573;51.290;6.926;2024-03-22T01:30:43;9.00;;;4.00;;
46835;SDS011;32573;51.290;6.926;2024-03-22T01:33:09;7.93;;;3.50;;
46835;SDS011;32573;51.290;6.926;2024-03-22T01:35:37;10.00;;;4.18;;
46835;SDS011;32573;51.290;6.926;2024-03-22T01:38:03;7.82;;;3.42;;
46835;SDS011;32573;51.290;6.926;2024-03-22T01:40:31;9.02;;;4.18;;
46835;SDS011;32573;51.290;6.926;2024-03-22T01:42:59;11.25;;;4.07;;
46835;SDS011;32573;51.290;6.926;2024-03-22T01:45:27;10.40;;;4.43;;
46835;SDS011;32573;51.290;6.926;2024-03-22T01:47:58;16.17;;;5.47;;
46835;SDS011;32573;51.290;6.926;2024-03-22T01:50:26;9.57;;;4.18;;
46835;SDS011;32573;51.290;6.926;2024-03-22T01:52:53;9.75;;;3.97;;
46835;SDS011;32573;51.290;6.926;2024-03-22T01:55:21;12.07;;;4.45;;
46835;SDS011;32573;51.290;6.926;2024-03-22T01:57:49;10.73;;;3.95;;
46835;SDS011;32573;51.290;6.926;2024-03-22T02:00:22;13.68;;;5.13;;
46835;SDS011;32573;51.290;6.926;2024-03-22T02:02:49;12.13;;;4.82;;
46835;SDS011;32573;51.290;6.926;2024-03-22T02:05:17;9.63;;;4.40;;
46835;SDS011;32573;51.290;6.926;2024-03-22T02:07:45;10.35;;;4.60;;
46835;SDS011;32573;51.290;6.926;2024-03-22T02:10:12;8.35;;;3.92;;
46835;SDS011;32573;51.290;6.926;2024-03-22T02:12:40;8.68;;;4.35;;
46835;SDS011;32573;51.290;6.926;2024-03-22T02:15:08;9.57;;;3.88;;
46835;SDS011;32573;51.290;6.926;2024-03-22T02:17:36;8.80;;;4.10;;
46835;SDS011;32573;51.290;6.926;2024-03-22T02:20:04;8.50;;;3.65;;
46835;SDS011;32573;51.290;6.926;2024-03-22T02:22:32;7.07;;;3.35;;
46835;SDS011;32573;51.290;6.926;2024-03-22T02:25:01;7.10;;;3.25;;
46835;SDS011;32573;51.290;6.926;2024-03-22T02:27:27;9.38;;;3.40;;
46835;SDS011;32573;51.290;6.926;2024-03-22T02:29:55;7.88;;;3.47;;
46835;SDS011;32573;51.290;6.926;2024-03-22T02:32:21;10.88;;;4.38;;
46835;SDS011;32573;51.290;6.926;2024-03-22T02:34:49;8.23;;;3.65;;
46835;SDS011;32573;51.290;6.926;2024-03-22T02:37:16;7.57;;;3.22;;
46835;SDS011;32573;51.290;6.926;2024-03-22T02:39:43;8.23;;;3.22;;
46835;SDS011;32573;51.290;6.926;2024-03-22T02:42:11;8.15;;;3.63;;
46835;SDS011;32573;51.290;6.926;2024-03-22T02:44:38;8.23;;;3.72;;
46835;SDS011;32573;51.290;6.926;2024-03-22T02:47:08;7.82;;;3.25;;
46835;SDS011;32573;51.290;6.926;2024-03-22T02:49:38;8.18;;;3.58;;
46835;SDS011;32573;51.290;6.926;2024-03-22T02:52:04;10.07;;;4.50;;
46835;SDS011;32573;51.290;6.926;2024-03-22T02:54:32;7.85;;;3.70;;
46835;SDS011;32573;51.290;6.926;2024-03-22T02:57:01;8.98;;;3.72;;
46835;SDS011;32573;51.290;6.926;2024-03-22T02:59:30;8.57;;;3.55;;
46835;SDS011;32573;51.290;6.926;2024-03-22T03:01:56;7.72;;;3.30;;
46835;SDS011;32573;51.290;6.926;2024-03-22T03:04:24;8.25;;;3.50;;
46835;SDS011;32573;51.290;6.926;2024-03-22T03:06:50;7.97;;;3.55;;
46835;SDS011;32573;51.290;6.926;2024-03-22T03:09:18;7.80;;;3.60;;
46835;SDS011;32573;51.290;6.926;2024-03-22T03:11:45;6.40;;;3.13;;
46835;SDS011;32573;51.290;6.926;2024-03-22T03:14:12;7.65;;;3.42;;
46835;SDS011;32573;51.290;6.926;2024-03-22T03:16:40;7.05;;;3.58;;
46835;SDS011;32573;51.290;6.926;2024-03-22T03:19:07;6.85;;;3.35;;
46835;SDS011;32573;51.290;6.926;2024-03-22T03:21:34;8.38;;;3.42;;
46835;SDS011;32573;51.290;6.926;2024-03-22T03:24:01;7.07;;;3.20;;
46835;SDS011;32573;51.290;6.926;2024-03-22T03:26:28;6.55;;;3.00;;
46835;SDS011;32573;51.290;6.926;2024-03-22T03:28:55;7.28;;;3.53;;
46835;SDS011;32573;51.290;6.926;2024-03-22T03:31:22;6.43;;;3.00;;
46835;SDS011;32573;51.290;6.926;2024-03-22T03:33:50;6.18;;;3.08;;
46835;SDS011;32573;51.290;6.926;2024-03-22T03:36:17;8.43;;;3.40;;
46835;SDS011;32573;51.290;6.926;2024-03-22T03:38:45;7.43;;;3.30;;
46835;SDS011;32573;51.290;6.926;2024-03-22T03:41:11;5.65;;;2.88;;
46835;SDS011;32573;51.290;6.926;2024-03-22T03:43:39;6.20;;;3.30;;
46835;SDS011;32573;51.290;6.926;2024-03-22T03:46:05;7.28;;;3.35;;
46835;SDS011;32573;51.290;6.926;2024-03-22T03:48:33;8.60;;;3.22;;
46835;SDS011;32573;51.290;6.926;2024-03-22T03:51:00;7.88;;;3.33;;
46835;SDS011;32573;51.290;6.926;2024-03-22T03:53:29;7.50;;;3.28;;
46835;SDS011;32573;51.290;6.926;2024-03-22T03:55:55;6.00;;;2.88;;
46835;SDS011;32573;51.290;6.926;2024-03-22T03:58:23;7.82;;;3.60;;
46835;SDS011;32573;51.290;6.926;2024-03-22T04:00:50;7.70;;;3.20;;
46835;SDS011;32573;51.290;6.926;2024-03-22T04:03:17;7.22;;;3.05;;
46835;SDS011;32573;51.290;6.926;2024-03-22T04:05:43;6.55;;;3.05;;
46835;SDS011;32573;51.290;6.926;2024-03-22T04:08:12;6.10;;;2.80;;
46835;SDS011;32573;51.290;6.926;2024-03-22T04:10:39;6.13;;;2.95;;
46835;SDS011;32573;51.290;6.926;2024-03-22T04:13:07;6.85;;;2.83;;
46835;SDS011;32573;51.290;6.926;2024-03-22T04:15:34;8.00;;;3.45;;
46835;SDS011;32573;51.290;6.926;2024-03-22T04:18:02;6.53;;;2.90;;
46835;SDS011;32573;51.290;6.926;2024-03-22T04:20:29;7.25;;;3.13;;
46835;SDS011;32573;51.290;6.926;2024-03-22T04:22:56;7.90;;;3.08;;
46835;SDS011;32573;51.290;6.926;2024-03-22T04:25:24;5.95;;;2.95;;
46835;SDS011;32573;51.290;6.926;2024-03-22T04:27:51;7.80;;;2.97;;
46835;SDS011;32573;51.290;6.926;2024-03-22T04:30:18;7.68;;;2.83;;
46835;SDS011;32573;51.290;6.926;2024-03-22T04:32:45;7.50;;;3.17;;
46835;SDS011;32573;51.290;6.926;2024-03-22T04:35:12;7.40;;;3.20;;
46835;SDS011;32573;51.290;6.926;2024-03-22T04:37:40;7.25;;;3.40;;
46835;SDS011;32573;51.290;6.926;2024-03-22T04:40:08;8.18;;;3.28;;
46835;SDS011;32573;51.290;6.926;2024-03-22T04:42:38;6.72;;;3.28;;
46835;SDS011;32573;51.290;6.926;2024-03-22T04:45:05;8.13;;;3.15;;
46835;SDS011;32573;51.290;6.926;2024-03-22T04:47:33;6.72;;;2.75;;
46835;SDS011;32573;51.290;6.926;2024-03-22T04:50:00;7.05;;;3.20;;
46835;SDS011;32573;51.290;6.926;2024-03-22T04:52:27;6.43;;;2.92;;
46835;SDS011;32573;51.290;6.926;2024-03-22T04:54:54;7.72;;;3.15;;
46835;SDS011;32573;51.290;6.926;2024-03-22T04:57:21;8.68;;;3.47;;
46835;SDS011;32573;51.290;6.926;2024-03-22T04:59:50;7.38;;;2.97;;
46835;SDS011;32573;51.290;6.926;2024-03-22T05:02:16;6.72;;;3.05;;
46835;SDS011;32573;51.290;6.926;2024-03-22T05:04:44;5.93;;;2.75;;
46835;SDS011;32573;51.290;6.926;2024-03-22T05:07:10;6.53;;;3.10;;
46835;SDS011;32573;51.290;6.926;2024-03-22T05:09:38;6.47;;;2.90;;
46835;SDS011;32573;51.290;6.926;2024-03-22T05:12:04;6.55;;;2.90;;
46835;SDS011;32573;51.290;6.926;2024-03-22T05:14:32;5.82;;;2.67;;
46835;SDS011;32573;51.290;6.926;2024-03-22T05:17:00;7.00;;;3.50;;
46835;SDS011;32573;51.290;6.926;2024-03-22T05:19:27;6.93;;;3.10;;
46835;SDS011;32573;51.290;6.926;2024-03-22T05:21:54;8.15;;;3.30;;
46835;SDS011;32573;51.290;6.926;2024-03-22T05:24:21;7.15;;;3.10;;
46835;SDS011;32573;51.290;6.926;2024-03-22T05:26:47;7.22;;;2.95;;
46835;SDS011;32573;51.290;6.926;2024-03-22T05:29:15;6.75;;;3.20;;
46835;SDS011;32573;51.290;6.926;2024-03-22T05:31:45;6.68;;;3.08;;
46835;SDS011;32573;51.290;6.926;2024-03-22T05:34:15;5.45;;;2.60;;
46835;SDS011;32573;51.290;6.926;2024-03-22T05:36:42;6.13;;;3.05;;
46835;SDS011;32573;51.290;6.926;2024-03-22T05:39:10;7.07;;;3.10;;
46835;SDS011;32573;51.290;6.926;2024-03-22T05:41:40;5.43;;;2.63;;
46835;SDS011;32573;51.290;6.926;2024-03-22T05:44:08;6.72;;;3.20;;
46835;SDS011;32573;51.290;6.926;2024-03-22T05:46:35;6.20;;;2.72;;
46835;SDS011;32573;51.290;6.926;2024-03-22T05:49:02;7.63;;;3.03;;
46835;SDS011;32573;51.290;6.926;2024-03-22T05:51:33;6.18;;;2.90;;
46835;SDS011;32573;51.290;6.926;2024-03-22T05:54:02;5.63;;;2.83;;
46835;SDS011;32573;51.290;6.926;2024-03-22T05:56:28;6.07;;;2.60;;
46835;SDS011;32573;51.290;6.926;2024-03-22T05:58:59;5.68;;;2.75;;
46835;SDS011;32573;51.290;6.926;2024-03-22T06:01:26;6.60;;;2.80;;
46835;SDS011;32573;51.290;6.926;2024-03-22T06:03:55;5.97;;;2.90;;
46835;SDS011;32573;51.290;6.926;2024-03-22T06:06:25;5.75;;;3.03;;
46835;SDS011;32573;51.290;6.926;2024-03-22T06:08:57;8.23;;;3.58;;
46835;SDS011;32573;51.290;6.926;2024-03-22T06:11:33;5.50;;;2.55;;
46835;SDS011;32573;51.290;6.926;2024-03-22T06:14:00;6.50;;;2.70;;
46835;SDS011;32573;51.290;6.926;2024-03-22T06:16:28;6.25;;;2.63;;
46835;SDS011;32573;51.290;6.926;2024-03-22T06:18:55;6.45;;;2.67;;
46835;SDS011;32573;51.290;6.926;2024-03-22T06:21:23;6.38;;;2.80;;
46835;SDS011;32573;51.290;6.926;2024-03-22T06:23:51;6.15;;;2.95;;
46835;SDS011;32573;51.290;6.926;2024-03-22T06:26:21;6.00;;;2.72;;
46835;SDS011;32573;51.290;6.926;2024-03-22T06:28:48;7.35;;;3.03;;
46835;SDS011;32573;51.290;6.926;2024-03-22T06:31:16;5.82;;;3.30;;
46835;SDS011;32573;51.290;6.926;2024-03-22T06:33:43;7.53;;;3.38;;
46835;SDS011;32573;51.290;6.926;2024-03-22T06:36:10;7.07;;;2.90;;
46835;SDS011;32573;51.290;6.926;2024-03-22T06:38:36;5.88;;;2.80;;
46835;SDS011;32573;51.290;6.926;2024-03-22T06:41:04;8.20;;;3.22;;
46835;SDS011;32573;51.290;6.926;2024-03-22T06:43:33;5.90;;;2.78;;
46835;SDS011;32573;51.290;6.926;2024-03-22T06:46:01;6.55;;;3.15;;
46835;SDS011;32573;51.290;6.926;2024-03-22T06:48:28;5.70;;;2.70;;
46835;SDS011;32573;51.290;6.926;2024-03-22T06:50:56;5.82;;;3.08;;
46835;SDS011;32573;51.290;6.926;2024-03-22T06:53:23;6.10;;;2.80;;
46835;SDS011;32573;51.290;6.926;2024-03-22T06:55:51;6.75;;;3.25;;
46835;SDS011;32573;51.290;6.926;2024-03-22T06:58:17;7.43;;;3.22;;
46835;SDS011;32573;51.290;6.926;2024-03-22T07:00:47;6.90;;;3.22;;
46835;SDS011;32573;51.290;6.926;2024-03-22T07:03:14;6.13;;;3.10;;
46835;SDS011;32573;51.290;6.926;2024-03-22T07:05:42;7.50;;;3.55;;
46835;SDS011;32573;51.290;6.926;2024-03-22T07:08:10;6.72;;;3.20;;
46835;SDS011;32573;51.290;6.926;2024-03-22T07:10:38;7.30;;;3.25;;
46835;SDS011;32573;51.290;6.926;2024-03-22T07:13:06;5.68;;;2.95;;
46835;SDS011;32573;51.290;6.926;2024-03-22T07:15:36;6.25;;;3.42;;
46835;SDS011;32573;51.290;6.926;2024-03-22T07:18:06;7.05;;;2.97;;
46835;SDS011;32573;51.290;6.926;2024-03-22T07:20:38;5.68;;;2.88;;
46835;SDS011;32573;51.290;6.926;2024-03-22T07:23:08;5.47;;;3.10;;
46835;SDS011;32573;51.290;6.926;2024-03-22T07:25:36;6.68;;;3.50;;
46835;SDS011;32573;51.290;6.926;2024-03-22T07:28:02;6.55;;;3.33;;
46835;SDS011;32573;51.290;6.926;2024-03-22T07:30:33;7.53;;;3.30;;
46835;SDS011;32573;51.290;6.926;2024-03-22T07:33:02;8.02;;;3.88;;
46835;SDS011;32573;51.290;6.926;2024-03-22T07:35:38;7.55;;;3.67;;
46835;SDS011;32573;51.290;6.926;2024-03-22T07:38:04;7.28;;;3.72;;
46835;SDS011;32573;51.290;6.926;2024-03-22T07:40:35;8.43;;;3.67;;
46835;SDS011;32573;51.290;6.926;2024-03-22T07:43:02;8.68;;;4.50;;
46835;SDS011;32573;51.290;6.926;2024-03-22T07:45:34;8.68;;;4.10;;
46835;SDS011;32573;51.290;6.926;2024-03-22T07:48:06;12.77;;;5.40;;
46835;SDS011;32573;51.290;6.926;2024-03-22T07:50:36;10.13;;;4.68;;
46835;SDS011;32573;51.290;6.926;2024-03-22T07:53:03;8.82;;;4.40;;
46835;SDS011;32573;51.290;6.926;2024-03-22T07:55:31;9.40;;;4.50;;
46835;SDS011;32573;51.290;6.926;2024-03-22T07:57:58;9.30;;;4.90;;
46835;SDS011;32573;51.290;6.926;2024-03-22T08:00:27;9.25;;;4.97;;
46835;SDS011;32573;51.290;6.926;2024-03-22T08:02:55;9.75;;;4.82;;
46835;SDS011;32573;51.290;6.926;2024-03-22T08:05:24;9.88;;;5.30;;
46835;SDS011;32573;51.290;6.926;2024-03-22T08:07:51;12.15;;;5.55;;
46835;SDS011;32573;51.290;6.926;2024-03-22T08:10:19;11.05;;;5.80;;
46835;SDS011;32573;51.290;6.926;2024-03-22T08:12:46;10.57;;;5.45;;
46835;SDS011;32573;51.290;6.926;2024-03-22T08:15:13;12.13;;;5.47;;
46835;SDS011;32573;51.290;6.926;2024-03-22T08:17:40;9.18;;;5.32;;
46835;SDS011;32573;51.290;6.926;2024-03-22T08:20:08;12.35;;;6.32;;
46835;SDS011;32573;51.290;6.926;2024-03-22T08:22:37;9.55;;;5.53;;
46835;SDS011;32573;51.290;6.926;2024-03-22T08:25:06;12.18;;;5.43;;
46835;SDS011;32573;51.290;6.926;2024-03-22T08:27:36;11.68;;;6.15;;
46835;SDS011;32573;51.290;6.926;2024-03-22T08:30:08;10.65;;;5.70;;
46835;SDS011;32573;51.290;6.926;2024-03-22T08:32:37;8.48;;;4.70;;
46835;SDS011;32573;51.290;6.926;2024-03-22T08:35:05;11.43;;;5.43;;
46835;SDS011;32573;51.290;6.926;2024-03-22T08:37:35;16.08;;;7.85;;
46835;SDS011;32573;51.290;6.926;2024-03-22T08:40:06;13.88;;;7.38;;
46835;SDS011;32573;51.290;6.926;2024-03-22T08:42:36;13.98;;;6.78;;
46835;SDS011;32573;51.290;6.926;2024-03-22T08:45:08;13.13;;;7.03;;
46835;SDS011;32573;51.290;6.926;2024-03-22T08:47:35;12.25;;;6.25;;
46835;SDS011;32573;51.290;6.926;2024-03-22T08:50:07;13.30;;;6.30;;
46835;SDS011;32573;51.290;6.926;2024-03-22T08:52:39;11.98;;;5.55;;
46835;SDS011;32573;51.290;6.926;2024-03-22T08:55:07;12.10;;;6.20;;
46835;SDS011;32573;51.290;6.926;2024-03-22T08:57:35;10.98;;;5.97;;
46835;SDS011;32573;51.290;6.926;2024-03-22T09:00:03;11.07;;;5.57;;
46835;SDS011;32573;51.290;6.926;2024-03-22T09:02:31;12.50;;;5.72;;
46835;SDS011;32573;51.290;6.926;2024-03-22T09:05:01;10.98;;;5.85;;
46835;SDS011;32573;51.290;6.926;2024-03-22T09:07:28;14.85;;;6.82;;
46835;SDS011;32573;51.290;6.926;2024-03-22T09:09:58;10.98;;;6.18;;
46835;SDS011;32573;51.290;6.926;2024-03-22T09:12:24;12.30;;;5.88;;
46835;SDS011;32573;51.290;6.926;2024-03-22T09:14:54;10.20;;;5.22;;
46835;SDS011;32573;51.290;6.926;2024-03-22T09:17:20;12.70;;;5.97;;
46835;SDS011;32573;51.290;6.926;2024-03-22T09:19:50;11.10;;;5.38;;
46835;SDS011;32573;51.290;6.926;2024-03-22T09:22:18;10.93;;;5.07;;
46835;SDS011;32573;51.290;6.926;2024-03-22T09:24:48;11.15;;;5.70;;
46835;SDS011;32573;51.290;6.926;2024-03-22T09:27:18;9.82;;;4.95;;
46835;SDS011;32573;51.290;6.926;2024-03-22T09:29:50;8.82;;;4.30;;
46835;SDS011;32573;51.290;6.926;2024-03-22T09:32:24;9.13;;;4.80;;
46835;SDS011;32573;51.290;6.926;2024-03-22T09:34:55;8.95;;;4.40;;
46835;SDS011;32573;51.290;6.926;2024-03-22T09:37:23;8.07;;;4.35;;
46835;SDS011;32573;51.290;6.926;2024-03-22T09:39:49;9.10;;;4.68;;
46835;SDS011;32573;51.290;6.926;2024-03-22T09:42:19;7.82;;;4.15;;
46835;SDS011;32573;51.290;6.926;2024-03-22T09:44:52;9.85;;;5.03;;
46835;SDS011;32573;51.290;6.926;2024-03-22T09:47:27;12.63;;;5.85;;
46835;SDS011;32573;51.290;6.926;2024-03-22T09:49:56;11.63;;;4.82;;
46835;SDS011;32573;51.290;6.926;2024-03-22T09:52:24;11.20;;;5.45;;
46835;SDS011;32573;51.290;6.926;2024-03-22T09:54:53;8.25;;;4.28;;
46835;SDS011;32573;51.290;6.926;2024-03-22T09:57:22;8.13;;;4.03;;
46835;SDS011;32573;51.290;6.926;2024-03-22T09:59:54;9.68;;;4.93;;
46835;SDS011;32573;51.290;6.926;2024-03-22T10:02:21;10.32;;;5.70;;
46835;SDS011;32573;51.290;6.926;2024-03-22T10:04:56;10.65;;;4.63;;
46835;SDS011;32573;51.290;6.926;2024-03-22T10:07:25;8.68;;;4.47;;
46835;SDS011;32573;51.290;6.926;2024-03-22T10:09:53;9.85;;;5.00;;
46835;SDS011;32573;51.290;6.926;2024-03-22T10:12:24;8.10;;;3.90;;
46835;SDS011;32573;51.290;6.926;2024-03-22T10:14:52;7.15;;;3.70;;
46835;SDS011;32573;51.290;6.926;2024-03-22T10:17:20;8.45;;;4.55;;
46835;SDS011;32573;51.290;6.926;2024-03-22T10:19:48;7.40;;;3.67;;
46835;SDS011;32573;51.290;6.926;2024-03-22T10:22:18;8.00;;;3.75;;
46835;SDS011;32573;51.290;6.926;2024-03-22T10:24:46;8.10;;;3.80;;
46835;SDS011;32573;51.290;6.926;2024-03-22T10:27:13;9.10;;;3.95;;
46835;SDS011;32573;51.290;6.926;2024-03-22T10:29:42;7.75;;;3.90;;
46835;SDS011;32573;51.290;6.926;2024-03-22T10:32:09;6.18;;;3.30;;
46835;SDS011;32573;51.290;6.926;2024-03-22T10:34:41;6.97;;;3.67;;
46835;SDS011;32573;51.290;6.926;2024-03-22T10:37:09;5.68;;;2.85;;
46835;SDS011;32573;51.290;6.926;2024-03-22T10:39:41;11.65;;;4.22;;
46835;SDS011;32573;51.290;6.926;2024-03-22T10:42:11;8.48;;;3.90;;
46835;SDS011;32573;51.290;6.926;2024-03-22T10:44:43;6.90;;;3.13;;
46835;SDS011;32573;51.290;6.926;2024-03-22T10:47:16;6.95;;;3.08;;
46835;SDS011;32573;51.290;6.926;2024-03-22T10:49:52;6.47;;;3.08;;
46835;SDS011;32573;51.290;6.926;2024-03-22T10:52:30;8.60;;;4.20;;
46835;SDS011;32573;51.290;6.926;2024-03-22T10:55:05;8.20;;;4.30;;
46835;SDS011;32573;51.290;6.926;2024-03-22T10:57:37;8.90;;;3.95;;
46835;SDS011;32573;51.290;6.926;2024-03-22T11:00:11;7.28;;;3.45;;
46835;SDS011;32573;51.290;6.926;2024-03-22T11:02:42;7.23;;;3.13;;
46835;SDS011;32573;51.290;6.926;2024-03-22T11:05:15;8.05;;;3.25;;
46835;SDS011;32573;51.290;6.926;2024-03-22T11:07:43;8.80;;;3.80;;
46835;SDS011;32573;51.290;6.926;2024-03-22T11:10:11;6.45;;;3.00;;
46835;SDS011;32573;51.290;6.926;2024-03-22T11:12:45;10.25;;;4.60;;
46835;SDS011;32573;51.290;6.926;2024-03-22T11:15:17;7.05;;;3.38;;
46835;SDS011;32573;51.290;6.926;2024-03-22T11:17:48;8.52;;;3.50;;
46835;SDS011;32573;51.290;6.926;2024-03-22T11:20:15;7.60;;;3.58;;
46835;SDS011;32573;51.290;6.926;2024-03-22T11:22:43;6.40;;;2.92;;
46835;SDS011;32573;51.290;6.926;2024-03-22T11:25:11;7.50;;;3.78;;
46835;SDS011;32573;51.290;6.926;2024-03-22T11:27:38;6.22;;;3.38;;
46835;SDS011;32573;51.290;6.926;2024-03-22T11:30:09;5.93;;;3.25;;
46835;SDS011;32573;51.290;6.926;2024-03-22T11:32:37;8.45;;;4.63;;
46835;SDS011;32573;51.290;6.926;2024-03-22T11:35:10;8.20;;;3.75;;
46835;SDS011;32573;51.290;6.926;2024-03-22T11:37:38;11.52;;;5.22;;
46835;SDS011;32573;51.290;6.926;2024-03-22T11:40:09;8.63;;;4.55;;
46835;SDS011;32573;51.290;6.926;2024-03-22T11:42:39;7.38;;;3.72;;
46835;SDS011;32573;51.290;6.926;2024-03-22T11:45:12;10.70;;;5.40;;
46835;SDS011;32573;51.290;6.926;2024-03-22T11:47:45;8.05;;;4.13;;
46835;SDS011;32573;51.290;6.926;2024-03-22T11:50:14;8.38;;;4.47;;
46835;SDS011;32573;51.290;6.926;2024-03-22T11:52:42;7.05;;;3.45;;
46835;SDS011;32573;51.290;6.926;2024-03-22T11:55:13;7.93;;;4.13;;
46835;SDS011;32573;51.290;6.926;2024-03-22T11:57:40;8.35;;;3.58;;
46835;SDS011;32573;51.290;6.926;2024-03-22T12:00:09;12.65;;;6.35;;
46835;SDS011;32573;51.290;6.926;2024-03-22T12:02:41;10.30;;;5.45;;
46835;SDS011;32573;51.290;6.926;2024-03-22T12:05:13;11.45;;;4.85;;
46835;SDS011;32573;51.290;6.926;2024-03-22T12:07:50;9.45;;;4.60;;
46835;SDS011;32573;51.290;6.926;2024-03-22T12:10:19;7.75;;;3.75;;
46835;SDS011;32573;51.290;6.926;2024-03-22T12:12:48;8.40;;;4.47;;
46835;SDS011;32573;51.290;6.926;2024-03-22T12:15:17;7.43;;;3.90;;
46835;SDS011;32573;51.290;6.926;2024-03-22T12:17:46;8.23;;;4.20;;
46835;SDS011;32573;51.290;6.926;2024-03-22T12:20:18;7.38;;;4.00;;
46835;SDS011;32573;51.290;6.926;2024-03-22T12:22:46;10.20;;;4.97;;
46835;SDS011;32573;51.290;6.926;2024-03-22T12:25:17;9.55;;;4.90;;
46835;SDS011;32573;51.290;6.926;2024-03-22T12:27:46;9.68;;;4.43;;
46835;SDS011;32573;51.290;6.926;2024-03-22T12:30:14;13.23;;;6.35;;
46835;SDS011;32573;51.290;6.926;2024-03-22T12:32:41;8.10;;;4.13;;
46835;SDS011;32573;51.290;6.926;2024-03-22T12:35:10;8.63;;;4.10;;
46835;SDS011;32573;51.290;6.926;2024-03-22T12:37:39;7.85;;;3.90;;
46835;SDS011;32573;51.290;6.926;2024-03-22T12:40:06;5.72;;;3.50;;
46835;SDS011;32573;51.290;6.926;2024-03-22T12:42:36;8.80;;;4.03;;
46835;SDS011;32573;51.290;6.926;2024-03-22T12:45:04;8.65;;;4.95;;
46835;SDS011;32573;51.290;6.926;2024-03-22T12:47:33;9.35;;;5.20;;
46835;SDS011;32573;51.290;6.926;2024-03-22T12:50:02;10.60;;;5.25;;
46835;SDS011;32573;51.290;6.926;2024-03-22T12:52:31;7.78;;;3.83;;
46835;SDS011;32573;51.290;6.926;2024-03-22T12:55:01;6.20;;;3.20;;
46835;SDS011;32573;51.290;6.926;2024-03-22T12:57:29;9.50;;;4.80;;
46835;SDS011;32573;51.290;6.926;2024-03-22T12:59:57;6.95;;;3.75;;
46835;SDS011;32573;51.290;6.926;2024-03-22T13:02:25;11.05;;;5.07;;
46835;SDS011;32573;51.290;6.926;2024-03-22T13:04:53;5.82;;;3.28;;
46835;SDS011;32573;51.290;6.926;2024-03-22T13:07:21;6.60;;;3.30;;
46835;SDS011;32573;51.290;6.926;2024-03-22T13:09:50;8.32;;;3.70;;
46835;SDS011;32573;51.290;6.926;2024-03-22T13:12:20;5.82;;;2.97;;
46835;SDS011;32573;51.290;6.926;2024-03-22T13:14:50;5.50;;;2.70;;
46835;SDS011;32573;51.290;6.926;2024-03-22T13:17:22;5.70;;;2.88;;
46835;SDS011;32573;51.290;6.926;2024-03-22T13:19:49;5.90;;;2.83;;
46835;SDS011;32573;51.290;6.926;2024-03-22T13:22:18;6.25;;;3.05;;
46835;SDS011;32573;51.290;6.926;2024-03-22T13:24:45;7.45;;;3.70;;
46835;SDS011;32573;51.290;6.926;2024-03-22T13:27:16;7.07;;;3.42;;
46835;SDS011;32573;51.290;6.926;2024-03-22T13:29:44;6.07;;;2.90;;
46835;SDS011;32573;51.290;6.926;2024-03-22T13:32:12;6.55;;;3.20;;
46835;SDS011;32573;51.290;6.926;2024-03-22T13:34:39;6.70;;;3.42;;
46835;SDS011;32573;51.290;6.926;2024-03-22T13:37:09;9.50;;;4.82;;
46835;SDS011;32573;51.290;6.926;2024-03-22T13:39:36;10.23;;;4.88;;
46835;SDS011;32573;51.290;6.926;2024-03-22T13:42:08;7.03;;;3.55;;
46835;SDS011;32573;51.290;6.926;2024-03-22T13:44:35;6.93;;;3.20;;
46835;SDS011;32573;51.290;6.926;2024-03-22T13:47:08;8.75;;;4.15;;
46835;SDS011;32573;51.290;6.926;2024-03-22T13:49:35;7.05;;;3.40;;
46835;SDS011;32573;51.290;6.926;2024-03-22T13:52:04;7.00;;;3.28;;
46835;SDS011;32573;51.290;6.926;2024-03-22T13:54:31;6.93;;;3.22;;
46835;SDS011;32573;51.290;6.926;2024-03-22T13:57:02;7.25;;;3.38;;
46835;SDS011;32573;51.290;6.926;2024-03-22T13:59:32;6.00;;;3.03;;
46835;SDS011;32573;51.290;6.926;2024-03-22T14:02:05;7.57;;;3.78;;
46835;SDS011;32573;51.290;6.926;2024-03-22T14:04:34;6.35;;;2.80;;
46835;SDS011;32573;51.290;6.926;2024-03-22T14:07:02;7.38;;;3.10;;
46835;SDS011;32573;51.290;6.926;2024-03-22T14:09:33;6.20;;;2.83;;
46835;SDS011;32573;51.290;6.926;2024-03-22T14:12:02;6.47;;;2.83;;
46835;SDS011;32573;51.290;6.926;2024-03-22T14:14:32;6.55;;;2.95;;
46835;SDS011;32573;51.290;6.926;2024-03-22T14:17:01;5.60;;;2.95;;
46835;SDS011;32573;51.290;6.926;2024-03-22T14:19:31;5.72;;;2.83;;
46835;SDS011;32573;51.290;6.926;2024-03-22T14:22:00;6.65;;;2.85;;
46835;SDS011;32573;51.290;6.926;2024-03-22T14:24:30;9.30;;;4.43;;
46835;SDS011;32573;51.290;6.926;2024-03-22T14:26:59;6.95;;;3.70;;
46835;SDS011;32573;51.290;6.926;2024-03-22T14:29:25;6.30;;;3.10;;
46835;SDS011;32573;51.290;6.926;2024-03-22T14:31:54;7.47;;;4.13;;
46835;SDS011;32573;51.290;6.926;2024-03-22T14:34:24;7.68;;;3.47;;
46835;SDS011;32573;51.290;6.926;2024-03-22T14:36:53;6.00;;;3.22;;
46835;SDS011;32573;51.290;6.926;2024-03-22T14:39:25;6.88;;;3.58;;
46835;SDS011;32573;51.290;6.926;2024-03-22T14:41:53;5.75;;;3.05;;
46835;SDS011;32573;51.290;6.926;2024-03-22T14:44:21;6.13;;;3.20;;
46835;SDS011;32573;51.290;6.926;2024-03-22T14:46:50;7.15;;;3.60;;
46835;SDS011;32573;51.290;6.926;2024-03-22T14:49:17;7.40;;;3.70;;
46835;SDS011;32573;51.290;6.926;2024-03-22T14:51:46;6.55;;;3.15;;
46835;SDS011;32573;51.290;6.926;2024-03-22T14:54:15;6.70;;;3.65;;